Time;durP1;ratioP1;P1;durP2;ratioP2;P2;SDS_P1;SDS_P2;PMS_P1;PMS_P2;Temp;Humidity;BMP_temperature;BMP_pressure;BME280_temperature;BME280_humidity;BME280_pressure;Samples;Min_cycle;Max_cycle;Signal;HPM_P1;HPM_P2
2022/05/11 00:00:14;;;;;;;1.40;1.27;;;23.80;42.60;;;25.68;35.52;101249.22;5054009;28;20229;-45
2022/05/11 00:02:41;;;;;;;1.30;1.20;;;23.80;42.60;;;25.68;35.41;101249.22;5054201;28;20650;-45
2022/05/11 00:05:12;;;;;;;1.80;1.30;;;23.70;42.50;;;25.68;35.53;101235.72;5053903;28;20280;-45
2022/05/11 00:07:39;;;;;;;1.23;1.23;;;23.70;42.50;;;25.69;35.42;101243.59;5054219;28;20190;-46
2022/05/11 00:10:11;;;;;;;1.37;1.27;;;23.70;42.50;;;25.68;34.69;101244.66;5051736;28;20484;-45
2022/05/11 00:12:40;;;;;;;1.27;1.10;;;23.70;42.50;;;25.68;35.19;101238.44;5054141;28;20198;-45
2022/05/11 00:15:09;;;;;;;1.50;1.40;;;23.70;42.50;;;25.68;35.48;101241.13;5048723;28;20217;-45
2022/05/11 00:17:37;;;;;;;1.20;1.20;;;23.70;42.50;;;25.68;34.89;101236.56;5043321;28;20190;-45
2022/05/11 00:20:07;;;;;;;1.00;1.00;;;23.70;42.50;;;25.68;34.90;101235.72;5033790;28;20221;-45
2022/05/11 00:22:36;;;;;;;1.40;1.30;;;23.70;42.50;;;25.66;34.87;101232.50;5034346;28;20199;-46
2022/05/11 00:25:09;;;;;;;1.10;1.10;;;23.70;42.50;;;25.67;35.41;101234.13;5034444;28;20194;-45
2022/05/11 00:27:37;;;;;;;1.60;1.50;;;23.70;42.50;;;25.67;35.03;101236.81;5034073;28;20281;-46
2022/05/11 00:30:07;;;;;;;1.13;1.10;;;23.70;42.50;;;25.67;34.82;101231.44;5034886;28;20193;-45
2022/05/11 00:32:35;;;;;;;1.33;1.23;;;23.70;42.50;;;25.66;34.71;101221.69;5035280;28;20194;-45
2022/05/11 00:35:04;;;;;;;1.27;1.20;;;23.70;42.50;;;25.67;34.82;101217.94;5033310;28;20237;-45
2022/05/11 00:37:31;;;;;;;1.17;1.13;;;23.70;42.50;;;25.66;35.05;101224.41;5033740;28;20273;-45
2022/05/11 00:40:00;;;;;;;1.27;1.13;;;23.70;42.50;;;25.67;34.99;101217.94;5033611;28;20225;-45
2022/05/11 00:42:27;;;;;;;1.30;1.30;;;23.70;42.50;;;25.67;34.83;101217.94;5040286;28;20217;-45
2022/05/11 00:44:55;;;;;;;1.70;1.40;;;23.70;42.50;;;25.66;35.48;101213.63;5053107;28;20268;-46
2022/05/11 00:47:30;;;;;;;1.50;1.40;;;23.70;42.50;;;25.66;34.89;101216.31;5053560;28;20647;-45
2022/05/11 00:50:03;;;;;;;1.50;1.40;;;23.70;42.50;;;25.65;35.16;101220.09;5037177;28;20257;-44
2022/05/11 00:52:41;;;;;;;1.50;1.30;;;23.70;42.40;;;25.63;34.71;101206.03;5033402;28;20676;-45
2022/05/11 00:55:15;;;;;;;1.10;1.10;;;23.70;42.50;;;25.62;35.36;101217.91;5047410;28;20227;-45
2022/05/11 00:57:50;;;;;;;1.40;1.30;;;23.70;42.40;;;25.64;34.85;101210.38;5046200;28;20684;-45
2022/05/11 01:00:21;;;;;;;1.60;1.50;;;23.70;43.10;;;25.64;34.69;101208.50;5052602;28;20213;-46
2022/05/11 01:03:01;;;;;;;1.30;1.30;;;23.70;43.10;;;25.62;34.72;101196.34;5053491;28;20190;-45
2022/05/11 01:05:29;;;;;;;1.40;1.30;;;23.70;42.40;;;25.62;35.26;101191.75;5044278;28;20616;-45
2022/05/11 01:07:58;;;;;;;1.50;1.40;;;23.70;42.40;;;25.62;35.24;101193.66;5033340;28;20197;-46
2022/05/11 01:10:32;;;;;;;1.30;1.30;;;23.70;42.40;;;25.62;35.12;101193.66;5032482;28;20186;-44
2022/05/11 01:13:06;;;;;;;1.33;1.23;;;23.70;42.40;;;25.62;35.38;101189.06;5034189;28;20197;-45
2022/05/11 01:15:34;;;;;;;1.40;1.30;;;23.70;42.40;;;25.64;35.23;101180.69;5037969;28;20568;-45
2022/05/11 01:18:07;;;;;;;1.50;1.40;;;23.70;42.40;;;25.65;34.85;101176.94;5052524;28;20197;-46
2022/05/11 01:20:36;;;;;;;1.40;1.30;;;23.70;42.40;;;25.64;34.70;101167.22;5057287;28;20213;-45
2022/05/11 01:23:17;;;;;;;1.47;1.37;;;23.70;42.40;;;25.59;35.14;101188.75;5055724;28;20292;-45
2022/05/11 01:25:46;;;;;;;1.80;1.37;;;23.70;43.10;;;25.63;35.26;101176.38;5056860;28;20213;-45
2022/05/11 01:28:17;;;;;;;1.90;1.80;;;23.70;42.40;;;25.63;34.69;101157.50;5056087;28;20193;-45
2022/05/11 01:30:48;;;;;;;1.73;1.63;;;23.70;42.50;;;25.63;35.28;101146.69;5055690;28;20200;-44
2022/05/11 01:33:22;;;;;;;1.33;1.33;;;23.70;42.50;;;25.60;35.39;101131.88;5056911;28;20546;-44
2022/05/11 01:36:02;;;;;;;1.67;1.57;;;23.70;42.40;;;25.58;35.29;101131.31;5056579;28;20221;-45
2022/05/11 01:38:40;;;;;;;1.40;1.30;;;23.70;42.40;;;25.58;35.32;101125.13;5055219;28;20190;-45
2022/05/11 01:41:15;;;;;;;1.57;1.47;;;23.70;42.40;;;25.60;34.98;101120.28;5057000;28;20189;-45
2022/05/11 01:43:43;;;;;;;1.63;1.53;;;23.70;42.40;;;25.62;35.29;101131.63;5057007;28;20194;-46
2022/05/11 01:46:10;;;;;;;1.80;1.70;;;23.70;42.40;;;25.61;34.84;101132.69;5053474;28;20244;-45
2022/05/11 01:48:38;;;;;;;1.37;1.30;;;23.70;42.40;;;25.60;34.73;101139.16;5036858;28;20214;-45
2022/05/11 01:51:06;;;;;;;1.50;1.40;;;23.70;42.40;;;25.61;35.00;101127.28;5036716;28;20194;-45
2022/05/11 01:53:33;;;;;;;1.50;1.40;;;23.70;42.40;;;25.60;34.71;101128.38;5037752;28;20198;-46
2022/05/11 01:56:01;;;;;;;1.50;1.40;;;23.70;42.40;;;25.60;34.60;101121.09;5053201;28;20222;-45
2022/05/11 01:58:30;;;;;;;1.47;1.37;;;23.70;42.40;;;25.61;35.23;101116.50;5056493;28;20186;-45
2022/05/11 02:00:59;;;;;;;1.60;1.50;;;23.70;42.40;;;25.60;35.32;101117.59;5054490;28;20217;-45
2022/05/11 02:03:26;;;;;;;2.13;1.27;;;23.70;42.40;;;25.60;35.22;101120.28;5054829;28;20191;-45
2022/05/11 02:08:45;;;;;;;1.30;1.30;;;23.70;42.40;;;25.62;34.90;101107.34;5055530;28;20196;-45
2022/05/11 02:11:15;;;;;;;1.67;1.57;;;23.70;42.40;;;25.59;34.95;101097.06;5054770;28;20570;-45
2022/05/11 02:13:44;;;;;;;1.60;1.50;;;23.70;42.40;;;25.60;35.28;101094.13;5056462;28;20193;-46
2022/05/11 02:16:13;;;;;;;1.57;1.47;;;23.60;42.30;;;25.58;35.17;101096.25;5039907;28;20218;-46
2022/05/11 02:18:41;;;;;;;1.40;1.40;;;23.70;42.40;;;25.60;35.00;101104.09;5041844;28;20199;-45
2022/05/11 02:21:09;;;;;;;1.30;1.20;;;23.70;42.30;;;25.59;34.78;101102.47;5037350;28;20280;-45
2022/05/11 02:23:37;;;;;;;1.33;1.27;;;23.70;42.40;;;25.62;34.87;101099.25;5036292;28;20187;-45
2022/05/11 02:26:08;;;;;;;1.30;1.30;;;23.70;42.40;;;25.57;35.29;101100.03;5034724;28;20218;-46
2022/05/11 02:28:36;;;;;;;1.33;1.23;;;23.60;42.30;;;25.59;34.73;101099.78;5037354;28;20194;-45
2022/05/11 02:31:05;;;;;;;1.40;1.30;;;23.70;42.30;;;25.59;35.35;101102.47;5051831;28;20670;-45
2022/05/11 02:33:32;;;;;;;1.60;1.50;;;23.70;42.40;;;25.59;35.06;101097.06;5044002;28;20663;-45
2022/05/11 02:36:00;;;;;;;1.20;1.20;;;23.70;42.40;;;25.60;35.35;101093.31;5035416;28;20218;-45
2022/05/11 02:38:33;;;;;;;1.53;1.43;;;23.60;42.30;;;25.60;35.10;101093.31;5045067;28;20585;-45
2022/05/11 02:41:02;;;;;;;1.10;1.10;;;23.70;42.30;;;25.60;34.88;101090.63;5055647;28;20249;-44
2022/05/11 02:43:29;;;;;;;1.50;1.40;;;23.60;42.30;;;25.58;35.14;101076.59;5055522;28;20570;-45
2022/05/11 02:45:56;;;;;;;1.60;1.50;;;23.60;42.20;;;25.61;35.35;101067.94;5054249;28;20225;-45
2022/05/11 02:48:25;;;;;;;1.33;1.27;;;23.60;42.20;;;25.59;34.79;101064.72;5052475;28;20197;-45
2022/05/11 02:50:56;;;;;;;1.30;1.20;;;23.60;42.90;;;25.58;35.32;101063.13;5041476;28;20190;-44
2022/05/11 02:53:26;;;;;;;1.20;1.10;;;23.60;42.30;;;25.58;35.00;101065.81;5055707;28;20650;-44
2022/05/11 02:55:55;;;;;;;1.07;1.00;;;23.70;42.40;;;25.58;34.88;101068.50;5036400;28;20226;-45
2022/05/11 02:58:27;;;;;;;1.00;1.00;;;23.70;42.40;;;25.58;34.76;101079.28;5035416;28;20194;-45
2022/05/11 03:01:00;;;;;;;1.33;1.30;;;23.60;42.30;;;25.55;35.17;101076.03;5035454;28;20214;-44
2022/05/11 03:03:35;;;;;;;1.10;1.10;;;23.60;42.30;;;25.59;34.64;101059.31;5036673;28;20198;-45
2022/05/11 03:06:05;;;;;;;1.10;1.10;;;23.60;42.30;;;25.57;35.00;101042.59;5035613;28;20224;-45
2022/05/11 03:08:33;;;;;;;1.87;1.23;;;23.60;42.20;;;25.57;35.10;101042.59;5034590;28;20195;-45
2022/05/11 03:11:01;;;;;;;1.20;1.20;;;23.60;42.30;;;25.58;34.53;101063.13;5042011;28;20193;-45
2022/05/11 03:13:28;;;;;;;1.47;1.37;;;23.60;42.20;;;25.58;35.04;101060.41;5040711;28;20201;-46
2022/05/11 03:15:56;;;;;;;1.17;1.17;;;23.60;42.20;;;25.57;34.59;101066.88;5049015;28;20211;-45
2022/05/11 03:18:24;;;;;;;1.40;1.30;;;23.60;42.20;;;25.57;34.83;101056.91;5053420;28;20225;-45
2022/05/11 03:20:56;;;;;;;1.00;1.00;;;23.70;42.40;;;25.57;34.84;101058.78;5049897;28;20207;-45
2022/05/11 03:23:25;;;;;;;1.20;1.20;;;23.60;42.30;;;25.56;34.60;101063.34;5035070;28;20197;-44
2022/05/11 03:25:53;;;;;;;1.00;1.00;;;23.60;42.20;;;25.59;35.15;101059.31;5034564;28;20225;-47
2022/05/11 03:28:20;;;;;;;1.10;1.00;;;23.60;42.20;;;25.58;35.15;101057.72;5038894;28;20700;-45
2022/05/11 03:30:48;;;;;;;1.37;1.27;;;23.60;42.20;;;25.59;35.29;101065.53;5034825;28;20187;-46
2022/05/11 03:36:03;;;;;;;1.03;1.03;;;23.60;42.30;;;25.54;35.37;101052.84;5034110;28;20222;-45
2022/05/11 03:38:30;;;;;;;1.40;1.30;;;23.60;42.30;;;25.54;34.93;101057.41;5035667;28;20244;-45
2022/05/11 03:40:58;;;;;;;1.00;1.00;;;23.60;42.20;;;25.54;34.75;101052.84;5034537;28;20709;-46
2022/05/11 03:43:25;;;;;;;1.30;1.20;;;23.60;42.30;;;25.55;34.64;101054.44;5049565;28;20201;-46
2022/05/11 03:45:52;;;;;;;1.07;1.07;;;23.60;42.30;;;25.57;35.08;101061.47;5050407;28;20221;-45
2022/05/11 03:48:19;;;;;;;1.10;1.10;;;23.60;42.30;;;25.56;35.22;101049.88;5052364;28;20601;-46
2022/05/11 03:50:47;;;;;;;1.23;1.20;;;23.60;42.30;;;25.58;35.08;101057.72;5054316;28;20189;-46
2022/05/11 03:53:15;;;;;;;0.97;0.97;;;23.60;42.30;;;25.58;35.11;101057.72;5052188;28;20197;-45
2022/05/11 03:55:43;;;;;;;1.27;1.17;;;23.60;42.30;;;25.57;34.59;101056.09;5052480;28;20217;-45
2022/05/11 03:58:13;;;;;;;1.43;1.33;;;23.70;42.40;;;25.57;34.74;101056.09;5034081;28;20269;-47
2022/05/11 04:00:41;;;;;;;1.20;1.10;;;23.60;42.30;;;25.58;34.71;101053.09;5035915;28;20678;-45
2022/05/11 04:03:08;;;;;;;1.23;1.13;;;23.60;42.40;;;25.58;35.31;101052.31;5034190;28;20191;-45
2022/05/11 04:05:36;;;;;;;1.07;1.07;;;23.60;42.40;;;25.57;35.32;101056.09;5034047;28;20621;-45
2022/05/11 04:08:04;;;;;;;1.30;1.20;;;23.60;42.40;;;25.55;34.72;101054.44;5034021;28;20195;-45
2022/05/11 04:10:33;;;;;;;1.07;1.07;;;23.60;42.30;;;25.57;35.20;101050.69;5052183;28;20206;-46
2022/05/11 04:13:01;;;;;;;1.20;1.20;;;23.60;42.30;;;25.55;34.64;101053.66;5053976;28;20557;-46
2022/05/11 04:15:29;;;;;;;1.10;1.10;;;23.60;42.30;;;25.54;35.02;101042.06;5051681;28;20214;-46
2022/05/11 04:17:57;;;;;;;1.27;1.23;;;23.60;42.30;;;25.55;35.04;101049.06;5052991;28;20561;-47
2022/05/11 04:20:24;;;;;;;1.33;1.23;;;23.60;42.40;;;25.55;35.51;101043.66;5053661;28;20214;-45
2022/05/11 04:22:52;;;;;;;1.07;1.07;;;23.60;42.50;;;25.57;34.92;101034.50;5053807;28;20552;-46
2022/05/11 04:25:19;;;;;;;1.07;1.07;;;23.60;42.40;;;25.57;34.76;101039.91;5051365;28;20296;-45
2022/05/11 04:27:48;;;;;;;1.20;1.10;;;23.60;42.40;;;25.57;34.85;101039.91;5053951;28;20558;-46
2022/05/11 04:30:20;;;;;;;1.10;1.10;;;23.60;42.40;;;25.57;35.06;101039.91;5053109;28;20189;-46
2022/05/11 04:32:48;;;;;;;1.00;1.00;;;23.60;42.50;;;25.56;34.89;101044.47;5053079;28;20221;-45
2022/05/11 04:35:15;;;;;;;1.30;1.20;;;23.60;42.50;;;25.57;34.79;101034.50;5036429;28;20209;-45
2022/05/11 04:37:42;;;;;;;1.37;1.27;;;23.60;42.50;;;25.55;35.04;101024.00;5033641;28;20233;-46
2022/05/11 04:40:11;;;;;;;1.20;1.20;;;23.60;42.50;;;25.57;35.20;101031.81;5034521;28;20216;-45
2022/05/11 04:42:43;;;;;;;0.90;0.90;;;23.60;42.50;;;25.57;35.34;101029.13;5035770;28;20569;-45
2022/05/11 04:45:13;;;;;;;1.20;1.10;;;23.60;42.40;;;25.55;35.27;101024.78;5038549;28;20194;-46
2022/05/11 04:47:40;;;;;;;1.37;1.27;;;23.60;42.50;;;25.56;35.01;101028.31;5053176;28;20527;-46
2022/05/11 04:50:09;;;;;;;1.30;1.20;;;23.60;42.60;;;25.58;35.01;101036.16;5044607;28;20195;-45
2022/05/11 04:52:43;;;;;;;1.13;1.13;;;23.60;42.60;;;25.58;34.98;101031.53;5053133;28;20197;-45
2022/05/11 04:55:11;;;;;;;1.20;1.20;;;23.60;42.70;;;25.55;35.47;101030.19;5053024;28;20201;-46
2022/05/11 04:57:38;;;;;;;1.37;1.27;;;23.60;42.70;;;25.55;35.51;101024.00;5035980;28;20233;-46
2022/05/11 05:00:10;;;;;;;0.90;0.90;;;23.60;42.70;;;25.55;35.47;101019.41;5039765;28;20707;-46
2022/05/11 05:02:39;;;;;;;1.00;1.00;;;23.60;42.60;;;25.56;35.69;101025.59;5053283;28;20189;-45
2022/05/11 05:05:10;;;;;;;1.30;1.20;;;23.60;42.80;;;25.55;35.73;101022.09;5052737;28;20658;-47
2022/05/11 05:07:39;;;;;;;1.13;1.13;;;23.60;42.90;;;25.55;35.61;101029.41;5035479;28;20205;-47
2022/05/11 05:10:12;;;;;;;0.93;0.93;;;23.60;42.90;;;25.57;35.05;101024.53;5032301;28;20583;-45
2022/05/11 05:12:41;;;;;;;1.03;1.03;;;23.60;42.80;;;25.58;35.40;101025.34;5034171;28;20198;-45
2022/05/11 05:15:11;;;;;;;0.97;0.97;;;23.60;42.90;;;25.55;35.76;101011.31;5032709;28;20190;-46
2022/05/11 05:17:39;;;;;;;1.37;1.27;;;23.60;42.80;;;25.56;34.99;101017.50;5045337;28;20190;-46
2022/05/11 05:20:10;;;;;;;1.27;1.17;;;23.60;42.90;;;25.55;35.72;101016.69;5052787;28;20210;-45
2022/05/11 05:22:38;;;;;;;1.30;1.30;;;23.60;42.90;;;25.55;34.98;101022.09;5037404;28;20528;-46
2022/05/11 05:25:06;;;;;;;1.07;1.07;;;23.70;42.90;;;25.57;35.32;101023.72;5036105;28;20573;-46
2022/05/11 05:27:34;;;;;;;1.20;1.20;;;23.60;42.90;;;25.55;35.21;101024.00;5033725;28;20269;-45
2022/05/11 05:32:50;;;;;;;1.10;1.10;;;23.60;43.00;;;25.53;35.79;101021.56;5052642;28;20193;-46
2022/05/11 05:35:20;;;;;;;1.10;1.10;;;23.60;43.00;;;25.55;35.75;101024.78;5052432;28;20224;-46
2022/05/11 05:37:48;;;;;;;1.20;1.20;;;23.70;43.10;;;25.54;35.52;101020.50;5052225;28;20333;-46
2022/05/11 05:40:15;;;;;;;1.33;1.27;;;23.60;43.00;;;25.54;35.75;101023.19;5048500;28;20218;-45
2022/05/11 05:42:43;;;;;;;1.23;1.17;;;23.70;43.00;;;25.55;35.51;101024.00;5052429;28;20186;-46
2022/05/11 05:45:11;;;;;;;1.00;1.00;;;23.60;43.00;;;25.54;35.16;101025.88;5046131;28;20654;-48
2022/05/11 05:47:39;;;;;;;1.00;1.00;;;23.60;43.00;;;25.55;35.81;101019.41;5052899;28;20194;-45
2022/05/11 05:50:10;;;;;;;1.30;1.20;;;23.60;43.10;;;25.55;35.63;101022.09;5052633;28;20190;-45
2022/05/11 05:52:37;;;;;;;0.90;0.90;;;23.60;43.00;;;25.57;35.30;101018.31;5052779;28;20256;-46
2022/05/11 05:55:06;;;;;;;1.20;1.20;;;23.60;43.00;;;25.54;35.19;101012.41;5052211;28;20205;-45
2022/05/11 05:57:34;;;;;;;1.07;1.03;;;23.60;43.00;;;25.54;35.29;101009.69;5038806;28;20667;-45
2022/05/11 06:00:04;;;;;;;1.00;1.00;;;23.70;43.00;;;25.57;35.18;101013.75;5039447;28;20198;-46
2022/05/11 06:02:32;;;;;;;1.37;1.27;;;23.60;43.10;;;25.58;35.13;101011.88;5036607;28;20248;-45
2022/05/11 06:04:59;;;;;;;1.10;1.10;;;23.70;43.20;;;25.54;35.76;101001.63;5035920;28;20233;-45
2022/05/11 06:07:28;;;;;;;1.00;1.00;;;23.60;43.00;;;25.57;35.75;101002.16;5036080;28;20286;-46
2022/05/11 06:09:55;;;;;;;1.10;1.10;;;23.60;43.00;;;25.57;35.75;101000.28;5035535;28;20244;-45
2022/05/11 06:12:22;;;;;;;1.20;1.20;;;23.70;43.10;;;25.56;35.22;100998.63;5036294;28;20190;-46
2022/05/11 06:14:49;;;;;;;1.10;1.10;;;23.60;43.00;;;25.55;35.12;101000.53;5047483;28;20194;-45
2022/05/11 06:17:23;;;;;;;1.10;1.10;;;23.70;43.10;;;25.55;35.44;100997.81;5055108;28;20233;-45
2022/05/11 06:19:52;;;;;;;1.10;1.10;;;23.60;43.00;;;25.56;35.26;100990.53;5055181;28;20198;-47
2022/05/11 06:22:19;;;;;;;1.00;1.00;;;23.70;43.00;;;25.55;35.24;101000.53;5055722;28;20240;-45
2022/05/11 06:24:48;;;;;;;1.10;1.10;;;23.70;43.00;;;25.57;35.77;100991.38;5055623;28;20194;-46
2022/05/11 06:27:19;;;;;;;1.13;1.13;;;23.60;43.10;;;25.58;35.87;100983.00;5055571;28;20686;-45
2022/05/11 06:29:52;;;;;;;0.97;0.97;;;23.60;42.90;;;25.57;35.12;100977.88;5053374;28;20186;-46
2022/05/11 06:32:19;;;;;;;1.07;1.07;;;23.70;42.90;;;25.59;35.17;100978.41;5036029;28;20187;-46
2022/05/11 06:34:46;;;;;;;1.13;1.13;;;23.70;42.90;;;25.59;35.08;100978.41;5049973;28;20208;-46
2022/05/11 06:37:14;;;;;;;1.00;1.00;;;23.70;42.90;;;25.55;35.28;100978.94;5055636;28;20233;-46
2022/05/11 06:39:41;;;;;;;0.93;0.93;;;23.70;42.90;;;25.59;35.62;100983.81;5056417;28;20521;-45
2022/05/11 06:42:12;;;;;;;1.03;1.03;;;23.60;42.90;;;25.59;35.43;100981.13;5056223;28;20225;-44
2022/05/11 06:44:40;;;;;;;0.83;0.83;;;23.70;42.90;;;25.59;35.07;100989.22;5056392;28;20208;-45
2022/05/11 06:47:08;;;;;;;0.90;0.90;;;23.60;42.90;;;25.58;35.42;100987.59;5050540;28;20206;-46
2022/05/11 06:49:35;;;;;;;1.00;1.00;;;23.60;42.80;;;25.59;35.62;100986.50;5037507;28;20643;-45
2022/05/11 06:52:04;;;;;;;0.80;0.80;;;23.70;42.90;;;25.60;35.17;100980.06;5036125;28;20190;-46
2022/05/11 07:00:07;;;;;;;0.83;0.83;;;23.70;42.80;;;25.57;35.71;100969.78;5056383;28;20186;-45
2022/05/11 07:02:37;;;;;;;1.10;1.00;;;23.60;42.80;;;25.58;35.08;100972.22;5056194;28;20213;-44
2022/05/11 07:05:07;;;;;;;1.03;1.03;;;23.70;42.80;;;25.59;35.60;100978.41;5050624;28;20190;-45
2022/05/11 07:07:35;;;;;;;1.10;1.10;;;23.60;42.80;;;25.58;35.34;100971.41;5036063;28;20187;-45
2022/05/11 07:10:04;;;;;;;1.00;1.00;;;23.60;42.80;;;25.58;35.35;100966.81;5034965;28;20194;-45
2022/05/11 07:12:35;;;;;;;1.10;1.10;;;23.60;42.80;;;25.59;35.66;100968.44;5035188;28;20182;-44
2022/05/11 07:15:08;;;;;;;0.90;0.90;;;23.60;42.80;;;25.60;35.22;100961.19;5041365;28;20195;-45
2022/05/11 07:17:39;;;;;;;1.00;1.00;;;23.60;42.80;;;25.60;35.51;100958.47;5055992;28;20197;-46
2022/05/11 07:20:11;;;;;;;0.90;0.90;;;23.70;42.90;;;25.60;35.26;100958.47;5044421;28;20280;-46
2022/05/11 07:22:39;;;;;;;1.00;1.00;;;23.70;42.90;;;25.60;35.37;100966.56;5051827;28;20214;-46
2022/05/11 07:25:09;;;;;;;1.00;1.00;;;23.60;42.80;;;25.62;35.66;100956.31;5041211;28;20215;-46
2022/05/11 07:27:38;;;;;;;0.90;0.90;;;23.60;42.80;;;25.62;35.32;100949.03;5042958;28;20198;-45
2022/05/11 07:30:09;;;;;;;1.23;1.17;;;23.60;42.80;;;25.62;35.66;100945.53;5040697;28;20216;-46
2022/05/11 07:32:37;;;;;;;1.00;1.00;;;23.70;42.90;;;25.63;35.41;100950.66;5041103;28;20221;-46
2022/05/11 07:35:06;;;;;;;0.93;0.93;;;23.70;42.90;;;25.63;35.03;100947.13;5039215;28;20212;-46
2022/05/11 07:37:33;;;;;;;1.10;1.10;;;23.70;42.90;;;25.63;35.06;100944.44;5038530;28;20697;-45
2022/05/11 07:40:00;;;;;;;0.83;0.83;;;23.70;42.90;;;25.65;35.57;100934.22;5038946;28;20316;-46
2022/05/11 07:42:28;;;;;;;0.93;0.93;;;23.70;42.90;;;25.63;35.56;100937.16;5038690;28;20686;-46
2022/05/11 07:44:57;;;;;;;0.83;0.83;;;23.60;42.80;;;25.66;35.60;100941.22;5039854;28;20202;-46
2022/05/11 07:47:24;;;;;;;0.97;0.90;;;23.70;42.80;;;25.65;34.95;100939.59;5036114;28;20224;-45
2022/05/11 07:49:52;;;;;;;1.00;1.00;;;23.70;42.80;;;25.66;35.06;100943.91;5038133;28;20205;-47
2022/05/11 07:52:19;;;;;;;1.00;0.93;;;23.70;42.70;;;25.66;35.21;100938.50;5035827;28;20198;-45
2022/05/11 07:54:47;;;;;;;1.00;1.00;;;23.70;42.70;;;25.66;35.46;100935.81;5033625;28;20225;-47
2022/05/11 08:00:06;;;;;;;1.07;1.07;;;23.70;42.60;;;25.67;35.28;100937.44;5034778;28;20531;-46
2022/05/11 08:02:39;;;;;;;0.90;0.90;;;23.70;42.50;;;25.67;35.47;100940.16;5035524;28;20522;-46
2022/05/11 08:05:10;;;;;;;0.80;0.80;;;23.70;42.60;;;25.65;35.60;100931.53;5038792;28;20202;-45
2022/05/11 08:07:41;;;;;;;1.00;1.00;;;23.80;42.60;;;25.67;35.50;100937.44;5036022;28;20216;-47
2022/05/11 08:10:19;;;;;;;0.80;0.80;;;23.80;42.60;;;25.64;34.87;100921.78;5038690;28;20210;-47
2022/05/11 08:12:46;;;;;;;1.57;1.00;;;23.70;42.50;;;25.67;34.90;100926.66;5036432;28;20202;-48
2022/05/11 08:15:17;;;;;;;0.90;0.90;;;23.80;42.60;;;25.67;35.47;100929.34;5037056;28;20205;-47
2022/05/11 08:17:46;;;;;;;0.90;0.90;;;23.80;42.60;;;25.69;34.96;100927.19;5037362;28;20217;-46
2022/05/11 08:20:18;;;;;;;1.23;0.70;;;23.80;42.70;;;25.68;34.85;100926.38;5033349;28;20225;-46
2022/05/11 08:22:46;;;;;;;0.73;0.73;;;23.80;42.70;;;25.69;35.08;100919.09;5035541;28;20229;-47
2022/05/11 08:25:20;;;;;;;1.10;1.00;;;23.80;42.60;;;25.69;35.48;100921.78;5037046;28;20212;-46
2022/05/11 08:27:48;;;;;;;1.00;0.90;;;23.80;42.60;;;25.69;35.18;100919.91;5035741;28;20200;-47
2022/05/11 08:33:23;;;;;;;1.03;0.80;;;23.80;42.60;;;25.69;34.93;100919.09;5035256;28;20198;-47
2022/05/11 08:36:16;;;;;;;0.97;0.97;;;23.80;42.50;;;25.69;35.12;100919.09;5033897;28;20237;-47
2022/05/11 08:38:47;;;;;;;1.40;1.10;;;23.80;43.10;;;25.70;34.72;100909.94;5036193;28;20601;-47
2022/05/11 08:41:34;;;;;;;0.60;0.60;;;23.80;42.50;;;25.66;35.50;100914.25;5034502;28;20717;-46
2022/05/11 08:44:07;;;;;;;1.63;1.00;;;23.80;42.50;;;25.71;35.18;100914.25;5034743;28;20252;-45
2022/05/11 08:47:02;;;;;;;0.80;0.80;;;23.80;42.50;;;25.68;35.48;100906.69;5032396;28;20279;-46
2022/05/11 08:49:48;;;;;;;1.03;0.93;;;23.80;42.50;;;25.68;35.30;100910.19;5033902;28;20201;-46
2022/05/11 08:52:35;;;;;;;0.97;0.97;;;23.80;42.60;;;25.71;35.20;100917.75;5032835;28;20196;-46
2022/05/11 08:55:11;;;;;;;0.80;0.80;;;23.80;42.50;;;25.74;35.36;100911.00;5045551;28;20564;-46
2022/05/11 08:57:41;;;;;;;5.23;1.03;;;23.80;42.50;;;25.75;34.87;100918.00;5050268;28;20196;-46
2022/05/11 09:00:15;;;;;;;1.73;0.90;;;23.80;42.60;;;25.76;35.07;100912.38;5052555;28;20289;-46
2022/05/11 09:02:52;;;;;;;0.97;0.97;;;23.80;42.60;;;25.74;35.40;100911.81;5038575;28;20284;-46
2022/05/11 09:05:23;;;;;;;1.57;1.10;;;23.80;42.50;;;25.78;34.77;100906.69;5034058;28;20218;-46
2022/05/11 09:07:53;;;;;;;1.17;0.80;;;23.80;42.60;;;25.78;34.70;100909.38;5034704;28;20210;-48
2022/05/11 09:10:30;;;;;;;1.43;0.83;;;23.90;42.60;;;25.78;35.38;100910.19;5040255;28;20190;-47
2022/05/11 09:13:02;;;;;;;2.97;1.30;;;23.90;42.60;;;25.80;34.79;100907.22;5041277;28;20681;-46
2022/05/11 09:15:56;;;;;;;1.73;1.10;;;23.80;42.60;;;25.74;35.37;100900.22;5045028;28;20252;-46
2022/05/11 09:18:39;;;;;;;1.10;1.00;;;23.90;42.60;;;25.77;35.39;100910.47;5038549;28;20546;-45
2022/05/11 09:21:29;;;;;;;0.70;0.70;;;23.90;42.60;;;25.77;35.05;100905.09;5040972;28;20194;-47
2022/05/11 09:24:21;;;;;;;1.30;1.10;;;23.90;43.00;;;25.76;34.99;100906.97;5034423;28;20273;-48
2022/05/11 09:27:05;;;;;;;0.90;0.90;;;23.90;42.60;;;25.77;35.51;100905.88;5031326;28;20225;-45
2022/05/11 09:29:37;;;;;;;2.03;1.00;;;23.90;42.90;;;25.81;34.86;100906.97;5039875;28;20588;-46
2022/05/11 09:32:25;;;;;;;0.90;0.90;;;23.90;42.70;;;25.78;35.46;100906.69;5044751;28;20194;-49
2022/05/11 09:34:54;;;;;;;1.00;1.00;;;23.90;42.70;;;25.84;35.37;100911.00;5036144;28;20207;-47
2022/05/11 09:37:34;;;;;;;1.13;1.00;;;23.90;42.60;;;25.82;35.25;100902.34;5040031;28;20236;-46
2022/05/11 09:40:12;;;;;;;2.00;1.10;;;23.90;42.60;;;25.82;35.48;100902.34;5044829;28;20198;-47
2022/05/11 09:42:51;;;;;;;1.47;0.97;;;23.90;42.60;;;25.82;35.22;100899.66;5042767;28;20218;-46
2022/05/11 09:45:42;;;;;;;3.33;1.07;;;23.90;42.60;;;25.79;35.21;100894.84;5045392;28;20255;-46
2022/05/11 09:48:19;;;;;;;2.43;1.30;;;23.90;42.60;;;25.82;35.09;100897.78;5047605;28;20198;-47
2022/05/11 09:50:54;;;;;;;1.13;0.97;;;24.00;42.70;;;25.85;34.89;100896.44;5042564;28;20192;-47
2022/05/11 09:53:34;;;;;;;2.53;1.00;;;23.90;42.70;;;25.83;35.55;100904.00;5039640;28;20208;-46
2022/05/11 09:56:21;;;;;;;2.43;1.07;;;23.90;42.70;;;25.81;34.84;100898.06;5045727;28;20718;-46
2022/05/11 09:58:49;;;;;;;4.20;1.37;;;24.00;42.80;;;25.85;34.74;100901.81;5042590;28;20197;-47
2022/05/11 10:01:24;;;;;;;1.60;1.10;;;23.90;42.60;;;25.85;35.52;100896.44;5040753;28;20199;-46
2022/05/11 10:03:58;;;;;;;3.87;1.20;;;24.00;42.70;;;25.88;35.53;100896.72;5040945;28;20198;-45
2022/05/11 10:06:52;;;;;;;3.53;1.13;;;24.00;42.70;;;25.87;34.63;100895.09;5040412;28;20206;-46
2022/05/11 10:09:29;;;;;;;1.60;1.27;;;24.00;42.70;;;25.87;35.49;100888.88;5046827;28;20550;-47
2022/05/11 10:12:10;;;;;;;3.03;1.10;;;24.00;42.70;;;25.92;34.81;100886.97;5043544;28;20193;-46
2022/05/11 10:23:49;;;;;;;0.93;0.93;;;24.00;42.60;;;25.90;35.32;100882.94;5042030;28;20218;-47
2022/05/11 10:26:26;;;;;;;2.60;1.20;;;24.00;42.60;;;25.95;34.66;100875.66;5047412;28;20264;-47
2022/05/11 10:29:03;;;;;;;1.30;1.20;;;24.00;42.60;;;25.94;34.66;100878.59;5046208;28;20252;-46
2022/05/11 10:31:38;;;;;;;1.43;0.87;;;24.00;42.50;;;25.94;34.97;100868.63;5041779;28;20194;-47
2022/05/11 10:34:17;;;;;;;2.40;0.87;;;24.00;42.60;;;25.96;34.65;100871.06;5045961;28;20194;-46
2022/05/11 10:36:54;;;;;;;4.47;1.27;;;24.00;42.50;;;25.97;35.01;100872.66;5039692;28;20229;-47
2022/05/11 10:39:39;;;;;;;2.73;1.00;;;24.10;42.60;;;25.96;35.02;100866.47;5045791;28;20304;-46
2022/05/11 10:42:13;;;;;;;3.13;1.10;;;24.10;42.60;;;25.98;34.91;100863.50;5046341;28;20243;-46
2022/05/11 10:45:02;;;;;;;1.57;1.07;;;24.10;42.60;;;25.95;35.28;100864.88;5046986;28;20217;-47
2022/05/11 10:48:08;;;;;;;3.07;1.20;;;24.10;42.50;;;25.94;35.25;100862.41;5042635;28;20291;-46
2022/05/11 10:50:51;;;;;;;1.00;1.00;;;24.10;42.50;;;25.98;34.72;100858.91;5041355;28;20202;-46
2022/05/11 10:53:34;;;;;;;1.20;1.10;;;24.10;42.50;;;25.98;34.96;100863.50;5039033;28;20190;-46
2022/05/11 10:56:29;;;;;;;2.93;1.07;;;24.10;42.50;;;25.96;35.00;100846.78;5046369;28;20304;-46
2022/05/11 10:59:47;;;;;;;5.47;0.90;;;24.10;42.50;;;25.95;35.28;100858.66;5053873;28;20561;-46